sensor_id;sensor_type;location;lat;lon;timestamp;pressure;altitude;pressure_sealevel;temperature;humidity
13209;BME280;6669;42.678;23.332;2024-03-06T00:00:30;94307.94;;;6.29;100.00
13209;BME280;6669;42.678;23.332;2024-03-06T00:02:59;94309.41;;;6.31;100.00
13209;BME280;6669;42.678;23.332;2024-03-06T00:05:28;94312.94;;;6.30;100.00
13209;BME280;6669;42.678;23.332;2024-03-06T00:07:57;94312.44;;;6.27;100.00
13209;BME280;6669;42.678;23.332;2024-03-06T00:10:27;94316.41;;;6.21;100.00
13209;BME280;6669;42.678;23.332;2024-03-06T00:12:55;94314.16;;;6.18;100.00
13209;BME280;6669;42.678;23.332;2024-03-06T00:15:23;94308.97;;;6.10;100.00
13209;BME280;6669;42.678;23.332;2024-03-06T00:17:51;94308.63;;;6.13;100.00
13209;BME280;6669;42.678;23.332;2024-03-06T00:20:20;94308.44;;;6.06;100.00
13209;BME280;6669;42.678;23.332;2024-03-06T00:22:48;94308.81;;;5.93;100.00
13209;BME280;6669;42.678;23.332;2024-03-06T00:25:18;94311.66;;;5.64;100.00
13209;BME280;6669;42.678;23.332;2024-03-06T00:27:46;94307.38;;;5.54;100.00
13209;BME280;6669;42.678;23.332;2024-03-06T00:30:15;94308.41;;;5.62;100.00
13209;BME280;6669;42.678;23.332;2024-03-06T00:32:43;94312.91;;;5.60;100.00
13209;BME280;6669;42.678;23.332;2024-03-06T00:35:11;94314.69;;;5.59;100.00
13209;BME280;6669;42.678;23.332;2024-03-06T00:37:39;94309.00;;;5.55;100.00
13209;BME280;6669;42.678;23.332;2024-03-06T00:40:09;94308.19;;;5.37;100.00
13209;BME280;6669;42.678;23.332;2024-03-06T00:42:38;94317.03;;;5.34;100.00
13209;BME280;6669;42.678;23.332;2024-03-06T00:45:09;94310.28;;;5.33;100.00
13209;BME280;6669;42.678;23.332;2024-03-06T00:47:37;94309.81;;;5.38;100.00
13209;BME280;6669;42.678;23.332;2024-03-06T00:50:06;94313.22;;;5.38;100.00
13209;BME280;6669;42.678;23.332;2024-03-06T00:52:34;94315.72;;;5.48;100.00
13209;BME280;6669;42.678;23.332;2024-03-06T00:58:29;94316.53;;;5.31;100.00
13209;BME280;6669;42.678;23.332;2024-03-06T01:00:57;94309.31;;;5.34;100.00
13209;BME280;6669;42.678;23.332;2024-03-06T01:03:26;94313.81;;;5.32;100.00
13209;BME280;6669;42.678;23.332;2024-03-06T01:05:54;94315.81;;;5.38;100.00
13209;BME280;6669;42.678;23.332;2024-03-06T01:08:22;94319.03;;;5.40;100.00
13209;BME280;6669;42.678;23.332;2024-03-06T01:10:54;94313.44;;;5.45;100.00
13209;BME280;6669;42.678;23.332;2024-03-06T01:13:23;94321.25;;;5.35;100.00
13209;BME280;6669;42.678;23.332;2024-03-06T01:15:53;94322.94;;;5.27;100.00
13209;BME280;6669;42.678;23.332;2024-03-06T01:18:21;94328.09;;;5.27;100.00
13209;BME280;6669;42.678;23.332;2024-03-06T01:20:50;94321.31;;;5.26;100.00
13209;BME280;6669;42.678;23.332;2024-03-06T01:23:18;94321.03;;;5.29;100.00
13209;BME280;6669;42.678;23.332;2024-03-06T01:25:46;94318.16;;;5.32;100.00
13209;BME280;6669;42.678;23.332;2024-03-06T01:28:14;94310.41;;;5.32;100.00
13209;BME280;6669;42.678;23.332;2024-03-06T01:30:43;94320.22;;;5.28;100.00
13209;BME280;6669;42.678;23.332;2024-03-06T01:33:13;94321.41;;;5.34;100.00
13209;BME280;6669;42.678;23.332;2024-03-06T01:35:42;94323.66;;;5.37;100.00
13209;BME280;6669;42.678;23.332;2024-03-06T01:38:10;94317.34;;;5.31;100.00
13209;BME280;6669;42.678;23.332;2024-03-06T01:40:43;94312.41;;;5.20;100.00
13209;BME280;6669;42.678;23.332;2024-03-06T01:43:20;94318.66;;;5.17;100.00
13209;BME280;6669;42.678;23.332;2024-03-06T01:45:50;94314.41;;;5.08;100.00
13209;BME280;6669;42.678;23.332;2024-03-06T01:48:23;94315.84;;;4.93;100.00
13209;BME280;6669;42.678;23.332;2024-03-06T01:50:56;94319.38;;;4.91;100.00
13209;BME280;6669;42.678;23.332;2024-03-06T01:53:25;94311.78;;;4.90;100.00
13209;BME280;6669;42.678;23.332;2024-03-06T01:55:55;94310.69;;;4.93;100.00
13209;BME280;6669;42.678;23.332;2024-03-06T01:58:23;94313.03;;;4.86;100.00
13209;BME280;6669;42.678;23.332;2024-03-06T02:00:52;94303.97;;;4.82;100.00
13209;BME280;6669;42.678;23.332;2024-03-06T02:03:24;94321.38;;;4.70;100.00
13209;BME280;6669;42.678;23.332;2024-03-06T02:05:53;94324.06;;;4.68;100.00
13209;BME280;6669;42.678;23.332;2024-03-06T02:08:21;94328.38;;;4.78;100.00
13209;BME280;6669;42.678;23.332;2024-03-06T02:10:50;94334.91;;;4.72;100.00
13209;BME280;6669;42.678;23.332;2024-03-06T02:13:18;94331.81;;;4.68;100.00
13209;BME280;6669;42.678;23.332;2024-03-06T02:15:48;94332.63;;;4.69;100.00
13209;BME280;6669;42.678;23.332;2024-03-06T02:18:16;94331.16;;;4.66;100.00
13209;BME280;6669;42.678;23.332;2024-03-06T02:20:47;94334.69;;;4.65;100.00
13209;BME280;6669;42.678;23.332;2024-03-06T02:23:16;94332.53;;;4.61;100.00
13209;BME280;6669;42.678;23.332;2024-03-06T02:25:47;94340.84;;;4.54;100.00
13209;BME280;6669;42.678;23.332;2024-03-06T02:28:16;94345.31;;;4.52;100.00
13209;BME280;6669;42.678;23.332;2024-03-06T02:30:45;94337.59;;;4.42;100.00
13209;BME280;6669;42.678;23.332;2024-03-06T02:33:15;94342.91;;;4.41;100.00
13209;BME280;6669;42.678;23.332;2024-03-06T02:35:44;94346.41;;;4.40;100.00
13209;BME280;6669;42.678;23.332;2024-03-06T02:38:14;94352.97;;;4.34;100.00
13209;BME280;6669;42.678;23.332;2024-03-06T02:40:43;94365.13;;;4.32;100.00
13209;BME280;6669;42.678;23.332;2024-03-06T02:43:12;94355.94;;;4.30;100.00
13209;BME280;6669;42.678;23.332;2024-03-06T02:45:40;94356.78;;;4.20;100.00
13209;BME280;6669;42.678;23.332;2024-03-06T02:48:09;94357.72;;;4.19;100.00
13209;BME280;6669;42.678;23.332;2024-03-06T02:50:37;94356.00;;;4.10;100.00
13209;BME280;6669;42.678;23.332;2024-03-06T02:53:05;94344.91;;;4.00;100.00
13209;BME280;6669;42.678;23.332;2024-03-06T02:55:35;94345.34;;;3.85;100.00
13209;BME280;6669;42.678;23.332;2024-03-06T02:58:04;94341.56;;;3.80;100.00
13209;BME280;6669;42.678;23.332;2024-03-06T03:00:32;94344.94;;;3.80;100.00
13209;BME280;6669;42.678;23.332;2024-03-06T03:03:01;94352.94;;;3.67;100.00
13209;BME280;6669;42.678;23.332;2024-03-06T03:05:30;94346.59;;;3.62;100.00
13209;BME280;6669;42.678;23.332;2024-03-06T03:08:00;94349.00;;;3.53;100.00
13209;BME280;6669;42.678;23.332;2024-03-06T03:10:28;94349.53;;;3.47;100.00
13209;BME280;6669;42.678;23.332;2024-03-06T03:12:58;94355.50;;;3.38;100.00
13209;BME280;6669;42.678;23.332;2024-03-06T03:15:26;94353.22;;;3.35;100.00
13209;BME280;6669;42.678;23.332;2024-03-06T03:17:54;94356.84;;;3.42;100.00
13209;BME280;6669;42.678;23.332;2024-03-06T03:20:23;94356.31;;;3.38;100.00
13209;BME280;6669;42.678;23.332;2024-03-06T03:22:51;94357.78;;;3.41;100.00
13209;BME280;6669;42.678;23.332;2024-03-06T03:25:20;94365.78;;;3.38;100.00
13209;BME280;6669;42.678;23.332;2024-03-06T03:27:48;94359.84;;;3.37;100.00
13209;BME280;6669;42.678;23.332;2024-03-06T03:30:18;94364.44;;;3.34;100.00
13209;BME280;6669;42.678;23.332;2024-03-06T03:32:48;94364.00;;;3.38;100.00
13209;BME280;6669;42.678;23.332;2024-03-06T03:35:16;94367.66;;;3.36;100.00
13209;BME280;6669;42.678;23.332;2024-03-06T03:37:47;94365.63;;;3.39;100.00
13209;BME280;6669;42.678;23.332;2024-03-06T03:40:18;94362.53;;;3.36;100.00
13209;BME280;6669;42.678;23.332;2024-03-06T03:42:47;94361.72;;;3.35;100.00
13209;BME280;6669;42.678;23.332;2024-03-06T03:45:15;94362.28;;;3.39;100.00
13209;BME280;6669;42.678;23.332;2024-03-06T03:47:45;94367.56;;;3.37;100.00
13209;BME280;6669;42.678;23.332;2024-03-06T03:50:13;94370.38;;;3.34;100.00
13209;BME280;6669;42.678;23.332;2024-03-06T03:52:41;94368.75;;;3.33;100.00
13209;BME280;6669;42.678;23.332;2024-03-06T03:55:11;94364.16;;;3.37;100.00
13209;BME280;6669;42.678;23.332;2024-03-06T03:57:39;94367.94;;;3.33;100.00
13209;BME280;6669;42.678;23.332;2024-03-06T04:00:07;94370.53;;;3.42;100.00
13209;BME280;6669;42.678;23.332;2024-03-06T04:02:38;94375.50;;;3.34;100.00
13209;BME280;6669;42.678;23.332;2024-03-06T04:05:08;94375.91;;;3.30;100.00
13209;BME280;6669;42.678;23.332;2024-03-06T04:07:37;94376.56;;;3.22;100.00
13209;BME280;6669;42.678;23.332;2024-03-06T04:10:06;94374.13;;;3.20;100.00
13209;BME280;6669;42.678;23.332;2024-03-06T04:12:37;94381.19;;;3.18;100.00
13209;BME280;6669;42.678;23.332;2024-03-06T04:15:07;94373.59;;;3.17;100.00
13209;BME280;6669;42.678;23.332;2024-03-06T04:17:35;94380.91;;;3.21;100.00
13209;BME280;6669;42.678;23.332;2024-03-06T04:20:04;94393.47;;;3.24;100.00
13209;BME280;6669;42.678;23.332;2024-03-06T04:22:36;94393.34;;;3.26;100.00
13209;BME280;6669;42.678;23.332;2024-03-06T04:25:04;94395.50;;;3.31;100.00
13209;BME280;6669;42.678;23.332;2024-03-06T04:27:32;94397.56;;;3.37;100.00
13209;BME280;6669;42.678;23.332;2024-03-06T04:30:01;94398.25;;;3.39;100.00
13209;BME280;6669;42.678;23.332;2024-03-06T04:32:29;94397.03;;;3.43;100.00
13209;BME280;6669;42.678;23.332;2024-03-06T04:34:57;94402.97;;;3.53;100.00
13209;BME280;6669;42.678;23.332;2024-03-06T04:37:26;94409.34;;;3.59;100.00
13209;BME280;6669;42.678;23.332;2024-03-06T04:39:57;94406.91;;;3.57;100.00
13209;BME280;6669;42.678;23.332;2024-03-06T04:42:26;94406.38;;;3.54;100.00
13209;BME280;6669;42.678;23.332;2024-03-06T04:44:54;94407.44;;;3.51;100.00
13209;BME280;6669;42.678;23.332;2024-03-06T04:47:24;94410.97;;;3.50;100.00
13209;BME280;6669;42.678;23.332;2024-03-06T04:49:56;94425.16;;;3.54;100.00
13209;BME280;6669;42.678;23.332;2024-03-06T04:52:25;94422.59;;;3.54;100.00
13209;BME280;6669;42.678;23.332;2024-03-06T04:54:53;94421.78;;;3.44;100.00
13209;BME280;6669;42.678;23.332;2024-03-06T04:57:22;94422.84;;;3.51;100.00
13209;BME280;6669;42.678;23.332;2024-03-06T04:59:51;94424.34;;;3.44;100.00
13209;BME280;6669;42.678;23.332;2024-03-06T05:02:20;94428.00;;;3.51;100.00
13209;BME280;6669;42.678;23.332;2024-03-06T05:04:48;94425.03;;;3.56;100.00
13209;BME280;6669;42.678;23.332;2024-03-06T05:07:34;94424.50;;;3.62;100.00
13209;BME280;6669;42.678;23.332;2024-03-06T05:10:19;94433.28;;;3.59;100.00
13209;BME280;6669;42.678;23.332;2024-03-06T05:13:07;94430.44;;;3.63;100.00
13209;BME280;6669;42.678;23.332;2024-03-06T05:15:53;94436.44;;;3.73;100.00
13209;BME280;6669;42.678;23.332;2024-03-06T05:18:39;94431.94;;;3.75;100.00
13209;BME280;6669;42.678;23.332;2024-03-06T05:21:24;94431.94;;;3.75;100.00
13209;BME280;6669;42.678;23.332;2024-03-06T05:24:09;94434.78;;;3.72;100.00
13209;BME280;6669;42.678;23.332;2024-03-06T05:26:55;94431.94;;;3.75;100.00
13209;BME280;6669;42.678;23.332;2024-03-06T05:29:42;94430.72;;;3.79;100.00
13209;BME280;6669;42.678;23.332;2024-03-06T05:32:27;94433.44;;;3.87;100.00
13209;BME280;6669;42.678;23.332;2024-03-06T05:35:13;94435.06;;;3.88;100.00
13209;BME280;6669;42.678;23.332;2024-03-06T05:37:59;94441.69;;;4.01;100.00
13209;BME280;6669;42.678;23.332;2024-03-06T05:40:44;94447.78;;;4.09;100.00
13209;BME280;6669;42.678;23.332;2024-03-06T05:43:30;94441.44;;;4.14;100.00
13209;BME280;6669;42.678;23.332;2024-03-06T05:46:17;94452.38;;;4.25;100.00
13209;BME280;6669;42.678;23.332;2024-03-06T05:49:03;94447.34;;;4.34;100.00
13209;BME280;6669;42.678;23.332;2024-03-06T05:51:50;94457.09;;;4.40;100.00
13209;BME280;6669;42.678;23.332;2024-03-06T05:54:37;94452.34;;;4.45;100.00
13209;BME280;6669;42.678;23.332;2024-03-06T05:57:23;94458.56;;;4.52;100.00
13209;BME280;6669;42.678;23.332;2024-03-06T06:00:09;94464.91;;;4.58;100.00
13209;BME280;6669;42.678;23.332;2024-03-06T06:02:40;94464.88;;;4.68;100.00
13209;BME280;6669;42.678;23.332;2024-03-06T06:05:09;94459.72;;;4.78;100.00
13209;BME280;6669;42.678;23.332;2024-03-06T06:07:49;94461.19;;;4.90;100.00
13209;BME280;6669;42.678;23.332;2024-03-06T06:10:18;94466.44;;;4.88;100.00
13209;BME280;6669;42.678;23.332;2024-03-06T06:12:48;94469.69;;;5.00;100.00
13209;BME280;6669;42.678;23.332;2024-03-06T06:15:17;94469.91;;;5.07;100.00
13209;BME280;6669;42.678;23.332;2024-03-06T06:17:46;94480.47;;;5.04;100.00
13209;BME280;6669;42.678;23.332;2024-03-06T06:20:15;94470.31;;;5.12;100.00
13209;BME280;6669;42.678;23.332;2024-03-06T06:22:45;94471.38;;;5.19;100.00
13209;BME280;6669;42.678;23.332;2024-03-06T06:25:13;94460.06;;;5.20;100.00
13209;BME280;6669;42.678;23.332;2024-03-06T06:27:43;94464.97;;;5.23;100.00
13209;BME280;6669;42.678;23.332;2024-03-06T06:30:11;94466.41;;;5.36;100.00
13209;BME280;6669;42.678;23.332;2024-03-06T06:32:40;94470.56;;;5.37;100.00
13209;BME280;6669;42.678;23.332;2024-03-06T06:35:11;94468.69;;;5.39;100.00
13209;BME280;6669;42.678;23.332;2024-03-06T06:37:42;94468.31;;;5.34;100.00
13209;BME280;6669;42.678;23.332;2024-03-06T06:40:11;94463.91;;;5.44;100.00
13209;BME280;6669;42.678;23.332;2024-03-06T06:42:44;94465.56;;;5.35;100.00
13209;BME280;6669;42.678;23.332;2024-03-06T06:45:17;94455.94;;;5.37;100.00
13209;BME280;6669;42.678;23.332;2024-03-06T06:47:46;94468.56;;;5.59;100.00
13209;BME280;6669;42.678;23.332;2024-03-06T06:50:16;94463.13;;;5.62;100.00
13209;BME280;6669;42.678;23.332;2024-03-06T06:52:45;94467.78;;;5.76;100.00
13209;BME280;6669;42.678;23.332;2024-03-06T06:55:14;94470.72;;;5.81;100.00
13209;BME280;6669;42.678;23.332;2024-03-06T06:57:43;94475.53;;;5.94;100.00
13209;BME280;6669;42.678;23.332;2024-03-06T07:00:11;94475.13;;;5.99;100.00
13209;BME280;6669;42.678;23.332;2024-03-06T07:02:40;94473.13;;;6.11;100.00
13209;BME280;6669;42.678;23.332;2024-03-06T07:05:10;94476.22;;;6.14;100.00
13209;BME280;6669;42.678;23.332;2024-03-06T07:07:40;94477.41;;;6.20;100.00
13209;BME280;6669;42.678;23.332;2024-03-06T07:10:09;94476.75;;;6.18;100.00
13209;BME280;6669;42.678;23.332;2024-03-06T07:12:37;94475.28;;;6.15;100.00
13209;BME280;6669;42.678;23.332;2024-03-06T07:15:06;94476.59;;;6.19;100.00
13209;BME280;6669;42.678;23.332;2024-03-06T07:17:34;94468.94;;;6.28;100.00
13209;BME280;6669;42.678;23.332;2024-03-06T07:20:03;94470.56;;;6.29;100.00
13209;BME280;6669;42.678;23.332;2024-03-06T07:22:35;94474.81;;;6.38;100.00
13209;BME280;6669;42.678;23.332;2024-03-06T07:25:05;94475.63;;;6.38;100.00
13209;BME280;6669;42.678;23.332;2024-03-06T07:27:34;94478.66;;;6.34;100.00
13209;BME280;6669;42.678;23.332;2024-03-06T07:30:02;94470.91;;;6.34;100.00
13209;BME280;6669;42.678;23.332;2024-03-06T07:32:30;94473.69;;;6.41;100.00
13209;BME280;6669;42.678;23.332;2024-03-06T07:34:59;94475.19;;;6.43;100.00
13209;BME280;6669;42.678;23.332;2024-03-06T07:37:27;94476.66;;;6.46;100.00
13209;BME280;6669;42.678;23.332;2024-03-06T07:39:55;94460.56;;;6.52;100.00
13209;BME280;6669;42.678;23.332;2024-03-06T07:42:25;94471.16;;;6.67;100.00
13209;BME280;6669;42.678;23.332;2024-03-06T07:44:53;94473.69;;;6.85;100.00
13209;BME280;6669;42.678;23.332;2024-03-06T07:47:21;94474.31;;;6.87;100.00
13209;BME280;6669;42.678;23.332;2024-03-06T07:49:50;94462.97;;;7.06;100.00
13209;BME280;6669;42.678;23.332;2024-03-06T07:52:18;94469.50;;;7.18;100.00
13209;BME280;6669;42.678;23.332;2024-03-06T07:54:47;94471.28;;;7.26;100.00
13209;BME280;6669;42.678;23.332;2024-03-06T07:57:15;94469.06;;;7.31;100.00
13209;BME280;6669;42.678;23.332;2024-03-06T07:59:46;94467.47;;;7.39;100.00
13209;BME280;6669;42.678;23.332;2024-03-06T08:02:15;94473.78;;;7.44;100.00
13209;BME280;6669;42.678;23.332;2024-03-06T08:04:43;94469.94;;;7.48;100.00
13209;BME280;6669;42.678;23.332;2024-03-06T08:07:11;94473.34;;;7.57;100.00
13209;BME280;6669;42.678;23.332;2024-03-06T08:09:40;94467.88;;;7.60;100.00
13209;BME280;6669;42.678;23.332;2024-03-06T08:12:10;94478.38;;;7.67;100.00
13209;BME280;6669;42.678;23.332;2024-03-06T08:14:38;94472.53;;;7.57;100.00
13209;BME280;6669;42.678;23.332;2024-03-06T08:17:07;94469.03;;;7.74;100.00
13209;BME280;6669;42.678;23.332;2024-03-06T08:19:36;94481.69;;;7.85;100.00
13209;BME280;6669;42.678;23.332;2024-03-06T08:22:04;94478.31;;;7.93;100.00
13209;BME280;6669;42.678;23.332;2024-03-06T08:24:33;94476.53;;;8.02;100.00
13209;BME280;6669;42.678;23.332;2024-03-06T08:27:01;94475.72;;;8.01;100.00
13209;BME280;6669;42.678;23.332;2024-03-06T08:29:30;94476.56;;;8.18;100.00
13209;BME280;6669;42.678;23.332;2024-03-06T08:31:58;94469.41;;;8.21;100.00
13209;BME280;6669;42.678;23.332;2024-03-06T08:34:29;94481.41;;;8.13;100.00
13209;BME280;6669;42.678;23.332;2024-03-06T08:36:58;94474.09;;;8.17;100.00
13209;BME280;6669;42.678;23.332;2024-03-06T08:39:27;94475.91;;;8.25;100.00
13209;BME280;6669;42.678;23.332;2024-03-06T08:41:55;94479.94;;;8.11;100.00
13209;BME280;6669;42.678;23.332;2024-03-06T08:44:24;94477.38;;;8.27;100.00
13209;BME280;6669;42.678;23.332;2024-03-06T08:46:53;94474.47;;;8.47;100.00
13209;BME280;6669;42.678;23.332;2024-03-06T08:49:21;94478.84;;;8.63;100.00
13209;BME280;6669;42.678;23.332;2024-03-06T08:51:51;94472.34;;;8.83;100.00
13209;BME280;6669;42.678;23.332;2024-03-06T08:54:19;94477.69;;;8.90;100.00
13209;BME280;6669;42.678;23.332;2024-03-06T08:56:47;94471.97;;;9.11;100.00
13209;BME280;6669;42.678;23.332;2024-03-06T08:59:16;94475.81;;;9.24;100.00
13209;BME280;6669;42.678;23.332;2024-03-06T09:01:44;94470.72;;;9.39;100.00
13209;BME280;6669;42.678;23.332;2024-03-06T09:04:14;94473.59;;;9.52;100.00
13209;BME280;6669;42.678;23.332;2024-03-06T09:06:43;94474.44;;;9.76;100.00
13209;BME280;6669;42.678;23.332;2024-03-06T09:09:12;94482.22;;;9.84;100.00
13209;BME280;6669;42.678;23.332;2024-03-06T09:11:43;94477.03;;;9.76;100.00
13209;BME280;6669;42.678;23.332;2024-03-06T09:14:11;94488.66;;;9.88;100.00
13209;BME280;6669;42.678;23.332;2024-03-06T09:16:40;94480.53;;;9.91;100.00
13209;BME280;6669;42.678;23.332;2024-03-06T09:19:08;94476.88;;;9.77;100.00
13209;BME280;6669;42.678;23.332;2024-03-06T09:21:36;94476.84;;;9.86;100.00
13209;BME280;6669;42.678;23.332;2024-03-06T09:24:05;94473.88;;;9.89;100.00
13209;BME280;6669;42.678;23.332;2024-03-06T09:26:34;94474.16;;;10.02;100.00
13209;BME280;6669;42.678;23.332;2024-03-06T09:29:04;94477.09;;;10.22;100.00
13209;BME280;6669;42.678;23.332;2024-03-06T09:31:32;94470.41;;;10.28;100.00
13209;BME280;6669;42.678;23.332;2024-03-06T09:34:00;94472.16;;;10.59;100.00
13209;BME280;6669;42.678;23.332;2024-03-06T09:36:28;94463.84;;;10.78;100.00
13209;BME280;6669;42.678;23.332;2024-03-06T09:38:59;94458.56;;;11.02;100.00
13209;BME280;6669;42.678;23.332;2024-03-06T09:41:28;94457.59;;;11.18;100.00
13209;BME280;6669;42.678;23.332;2024-03-06T09:43:59;94458.41;;;11.33;100.00
13209;BME280;6669;42.678;23.332;2024-03-06T09:46:27;94451.66;;;11.39;100.00
13209;BME280;6669;42.678;23.332;2024-03-06T09:48:56;94452.56;;;11.31;100.00
13209;BME280;6669;42.678;23.332;2024-03-06T09:51:24;94457.69;;;11.24;100.00
13209;BME280;6669;42.678;23.332;2024-03-06T09:53:54;94452.47;;;11.39;100.00
13209;BME280;6669;42.678;23.332;2024-03-06T09:56:22;94450.94;;;11.60;100.00
13209;BME280;6669;42.678;23.332;2024-03-06T09:58:51;94442.66;;;11.56;100.00
13209;BME280;6669;42.678;23.332;2024-03-06T10:01:23;94445.31;;;11.78;100.00
13209;BME280;6669;42.678;23.332;2024-03-06T10:03:53;94437.94;;;12.18;100.00
13209;BME280;6669;42.678;23.332;2024-03-06T10:06:21;94440.09;;;12.58;100.00
13209;BME280;6669;42.678;23.332;2024-03-06T10:08:50;94443.38;;;12.67;100.00
13209;BME280;6669;42.678;23.332;2024-03-06T10:11:18;94433.84;;;12.81;100.00
13209;BME280;6669;42.678;23.332;2024-03-06T10:13:47;94429.22;;;12.83;100.00
13209;BME280;6669;42.678;23.332;2024-03-06T10:16:17;94432.13;;;12.95;100.00
13209;BME280;6669;42.678;23.332;2024-03-06T10:18:48;94427.84;;;13.22;100.00
13209;BME280;6669;42.678;23.332;2024-03-06T10:21:16;94420.25;;;13.69;100.00
13209;BME280;6669;42.678;23.332;2024-03-06T10:23:46;94423.78;;;14.16;97.08
13209;BME280;6669;42.678;23.332;2024-03-06T10:26:15;94418.56;;;14.36;95.98
13209;BME280;6669;42.678;23.332;2024-03-06T10:28:45;94416.97;;;14.62;90.20
13209;BME280;6669;42.678;23.332;2024-03-06T10:31:13;94410.72;;;14.90;87.97
13209;BME280;6669;42.678;23.332;2024-03-06T10:33:42;94403.88;;;15.68;85.13
13209;BME280;6669;42.678;23.332;2024-03-06T10:36:12;94400.31;;;16.26;79.41
13209;BME280;6669;42.678;23.332;2024-03-06T10:38:42;94400.72;;;16.55;76.57
13209;BME280;6669;42.678;23.332;2024-03-06T10:41:14;94397.59;;;16.40;73.78
13209;BME280;6669;42.678;23.332;2024-03-06T10:43:47;94401.84;;;16.09;71.92
13209;BME280;6669;42.678;23.332;2024-03-06T10:46:19;94392.72;;;15.34;74.68
13209;BME280;6669;42.678;23.332;2024-03-06T10:48:48;94390.16;;;15.66;74.58
13209;BME280;6669;42.678;23.332;2024-03-06T10:51:21;94386.81;;;15.97;74.31
13209;BME280;6669;42.678;23.332;2024-03-06T10:53:50;94380.72;;;16.54;73.03
13209;BME280;6669;42.678;23.332;2024-03-06T10:56:21;94383.19;;;16.99;70.76
13209;BME280;6669;42.678;23.332;2024-03-06T10:58:50;94374.09;;;17.51;68.62
13209;BME280;6669;42.678;23.332;2024-03-06T11:01:19;94377.06;;;17.73;66.78
13209;BME280;6669;42.678;23.332;2024-03-06T11:03:48;94361.13;;;18.17;66.39
13209;BME280;6669;42.678;23.332;2024-03-06T11:06:17;94353.38;;;18.58;63.96
13209;BME280;6669;42.678;23.332;2024-03-06T11:08:47;94356.72;;;18.89;62.97
13209;BME280;6669;42.678;23.332;2024-03-06T11:11:19;94350.88;;;18.51;62.02
13209;BME280;6669;42.678;23.332;2024-03-06T11:13:48;94348.19;;;18.04;63.58
13209;BME280;6669;42.678;23.332;2024-03-06T11:16:16;94347.66;;;18.49;62.31
13209;BME280;6669;42.678;23.332;2024-03-06T11:18:45;94337.91;;;17.84;62.76
13209;BME280;6669;42.678;23.332;2024-03-06T11:21:29;94334.78;;;17.93;62.75
13209;BME280;6669;42.678;23.332;2024-03-06T11:24:19;94331.03;;;18.13;61.56
13209;BME280;6669;42.678;23.332;2024-03-06T11:26:55;94324.63;;;18.09;63.08
13209;BME280;6669;42.678;23.332;2024-03-06T11:29:28;94319.13;;;17.99;63.44
13209;BME280;6669;42.678;23.332;2024-03-06T11:32:05;94317.34;;;18.46;62.78
13209;BME280;6669;42.678;23.332;2024-03-06T11:34:37;94308.75;;;18.75;60.63
13209;BME280;6669;42.678;23.332;2024-03-06T11:37:07;94305.66;;;18.54;59.61
13209;BME280;6669;42.678;23.332;2024-03-06T11:39:39;94312.28;;;17.79;59.60
13209;BME280;6669;42.678;23.332;2024-03-06T11:42:13;94312.34;;;17.60;60.55
13209;BME280;6669;42.678;23.332;2024-03-06T11:44:53;94318.44;;;17.73;59.29
13209;BME280;6669;42.678;23.332;2024-03-06T11:47:24;94307.72;;;18.05;58.87
13209;BME280;6669;42.678;23.332;2024-03-06T11:49:53;94301.63;;;18.16;57.86
13209;BME280;6669;42.678;23.332;2024-03-06T11:52:22;94307.59;;;17.20;59.30
13209;BME280;6669;42.678;23.332;2024-03-06T11:54:52;94299.81;;;16.07;61.33
13209;BME280;6669;42.678;23.332;2024-03-06T11:57:21;94307.94;;;15.60;62.17
13209;BME280;6669;42.678;23.332;2024-03-06T11:59:52;94298.56;;;15.46;63.16
13209;BME280;6669;42.678;23.332;2024-03-06T12:02:21;94301.25;;;15.71;63.56
13209;BME280;6669;42.678;23.332;2024-03-06T12:04:49;94296.69;;;15.60;64.70
13209;BME280;6669;42.678;23.332;2024-03-06T12:07:18;94294.16;;;15.46;64.88
13209;BME280;6669;42.678;23.332;2024-03-06T12:09:47;94291.19;;;15.68;64.67
13209;BME280;6669;42.678;23.332;2024-03-06T12:12:16;94287.50;;;16.51;63.14
13209;BME280;6669;42.678;23.332;2024-03-06T12:14:56;94278.94;;;17.49;61.54
13209;BME280;6669;42.678;23.332;2024-03-06T12:17:25;94289.59;;;17.96;59.98
13209;BME280;6669;42.678;23.332;2024-03-06T12:19:55;94276.16;;;18.17;57.83
13209;BME280;6669;42.678;23.332;2024-03-06T12:22:25;94280.41;;;18.53;57.49
13209;BME280;6669;42.678;23.332;2024-03-06T12:24:58;94268.09;;;18.94;55.85
13209;BME280;6669;42.678;23.332;2024-03-06T12:27:28;94269.84;;;18.65;55.49
13209;BME280;6669;42.678;23.332;2024-03-06T12:29:56;94275.34;;;18.63;57.17
13209;BME280;6669;42.678;23.332;2024-03-06T12:32:24;94267.22;;;19.30;56.63
13209;BME280;6669;42.678;23.332;2024-03-06T12:34:57;94262.88;;;19.23;55.04
13209;BME280;6669;42.678;23.332;2024-03-06T12:37:30;94263.84;;;19.63;54.62
13209;BME280;6669;42.678;23.332;2024-03-06T12:40:00;94270.31;;;19.72;54.30
13209;BME280;6669;42.678;23.332;2024-03-06T12:42:31;94269.84;;;18.41;61.12
13209;BME280;6669;42.678;23.332;2024-03-06T12:44:59;94268.34;;;17.68;64.60
13209;BME280;6669;42.678;23.332;2024-03-06T12:47:27;94273.03;;;17.23;68.01
13209;BME280;6669;42.678;23.332;2024-03-06T12:49:56;94270.91;;;17.13;70.67
13209;BME280;6669;42.678;23.332;2024-03-06T12:52:24;94267.47;;;16.76;72.10
13209;BME280;6669;42.678;23.332;2024-03-06T12:54:52;94270.13;;;16.57;73.89
13209;BME280;6669;42.678;23.332;2024-03-06T12:57:20;94275.03;;;16.28;75.56
13209;BME280;6669;42.678;23.332;2024-03-06T12:59:50;94272.47;;;15.96;76.20
13209;BME280;6669;42.678;23.332;2024-03-06T13:02:18;94264.41;;;15.66;78.26
13209;BME280;6669;42.678;23.332;2024-03-06T13:04:46;94271.41;;;15.40;80.19
13209;BME280;6669;42.678;23.332;2024-03-06T13:07:15;94275.75;;;15.14;83.71
13209;BME280;6669;42.678;23.332;2024-03-06T13:09:43;94269.34;;;15.10;85.81
13209;BME280;6669;42.678;23.332;2024-03-06T13:12:11;94274.53;;;14.58;89.92
13209;BME280;6669;42.678;23.332;2024-03-06T13:14:39;94270.28;;;15.23;90.30
13209;BME280;6669;42.678;23.332;2024-03-06T13:17:09;94276.25;;;16.00;84.73
13209;BME280;6669;42.678;23.332;2024-03-06T13:19:37;94279.00;;;16.56;80.17